עמוד ראשי
METAR-TAF:

METAR-TAF

שדות תעופה :

Nador, מרוקו

קו רוחב: 34-59-20N, קו אורך: 003-01-42W, גובה: 175מטר

תצפית מזג אוויר נוכחית

הדו"ח נערך לפני 24דקות, בשעה 11:00 UTC
רוח 8קשר מכיוון מזרח/צפון-מזרח, משתנה בין צפון/צפון-מזרח ו מזרח
טמפרטורת 26 צלסיוס
לחות 58%
לחץ 1011 hPa
ראות: 8000מטר

METAR: GMMW 251100Z 06008KT 030V100 8000 NSC 26/17 Q1011 NOSIG

זמן: 12:24 (11:24 UTC)

תחזית

הדו"ח נערך לפני 6 שעות ו 24דקות, בשעה 05:00 UTC
תחזית בתוקף מ 25 ב 06 UTC עד 26 ב 12 UTC
רוח 3קשר מכיוון מזרח/צפון-מזרח
ראות: 8000מטר
עננים בינוניים בגובה 1000רגל
יעשה מ
25 ב 08 UTC עד 25 ב 10 UTC
עננים פזורים בגובה 1000רגל
יעשה מ
25 ב 10 UTC עד 25 ב 12 UTC
רוח 13קשר מכיוון צפון-מזרח

TAF: GMMW 250500Z 2506/2612 07003KT 8000 BKN010 BECMG 2508/2510 SCT010 BECMG 2510/2512 04013KT

תצפיות ותחזיות מזג אוויר לגבי יותר מ- 4,000 שדות תעופה ברחבי העולם. דוחות METAR ו- TAF.

התחנות הזמינות מסומנות בנקודות צהובות ואדומות על גבי המפה.

העבר את העכבר לנקודה הצבעונית על מנת לראות את שם התחנה.

לאחר מכן, לחץ כדי לראות את תוכן ואת תחזיות מזג האוויר.

כדי לשנות את המפה: לחץ על הכפתורים הירוקים עם הפלוס השחור כדי להתקרב; על הכפתור הירוק עם המקף כדי להתרחק; או בחיצים הירוקים למפות סמוכות.


METAR-TAF: